sensor_id;sensor_type;location;lat;lon;timestamp;pressure;altitude;pressure_sealevel;temperature;humidity
45888;BME280;31595;51.418;7.572;2023-02-02T00:00:16;100646.47;;;7.84;74.62
45888;BME280;31595;51.418;7.572;2023-02-02T00:02:45;100641.38;;;7.91;73.13
45888;BME280;31595;51.418;7.572;2023-02-02T00:05:12;100635.84;;;7.91;74.51
45888;BME280;31595;51.418;7.572;2023-02-02T00:07:39;100635.84;;;7.91;74.35
45888;BME280;31595;51.418;7.572;2023-02-02T00:10:08;100642.16;;;7.97;73.58
45888;BME280;31595;51.418;7.572;2023-02-02T00:12:35;100633.78;;;8.02;73.62
45888;BME280;31595;51.418;7.572;2023-02-02T00:15:03;100636.81;;;8.05;72.51
45888;BME280;31595;51.418;7.572;2023-02-02T00:17:30;100632.94;;;8.06;73.83
45888;BME280;31595;51.418;7.572;2023-02-02T00:19:59;100630.72;;;8.03;73.85
45888;BME280;31595;51.418;7.572;2023-02-02T00:22:26;100632.06;;;8.06;72.78
45888;BME280;31595;51.418;7.572;2023-02-02T00:24:53;100628.19;;;8.07;73.87
45888;BME280;31595;51.418;7.572;2023-02-02T00:27:20;100628.66;;;8.14;74.02
45888;BME280;31595;51.418;7.572;2023-02-02T00:29:48;100628.66;;;8.14;72.85
45888;BME280;31595;51.418;7.572;2023-02-02T00:32:18;100640.00;;;8.18;74.00
45888;BME280;31595;51.418;7.572;2023-02-02T00:34:46;100646.63;;;8.22;74.69
45888;BME280;31595;51.418;7.572;2023-02-02T00:37:14;100639.66;;;8.24;74.68
45888;BME280;31595;51.418;7.572;2023-02-02T00:39:41;100633.81;;;8.26;74.33
45888;BME280;31595;51.418;7.572;2023-02-02T00:42:10;100626.59;;;8.25;73.61
45888;BME280;31595;51.418;7.572;2023-02-02T00:44:37;100636.88;;;8.24;74.18
45888;BME280;31595;51.418;7.572;2023-02-02T00:47:22;100647.16;;;8.24;72.71
45888;BME280;31595;51.418;7.572;2023-02-02T00:49:49;100637.69;;;8.25;73.26
45888;BME280;31595;51.418;7.572;2023-02-02T00:52:18;100627.72;;;8.24;73.24
45888;BME280;31595;51.418;7.572;2023-02-02T00:54:45;100631.94;;;8.21;72.30
45888;BME280;31595;51.418;7.572;2023-02-02T00:57:12;100633.38;;;8.13;73.62
45888;BME280;31595;51.418;7.572;2023-02-02T00:59:40;100635.81;;;7.96;73.29
45888;BME280;31595;51.418;7.572;2023-02-02T01:02:08;100637.16;;;7.99;74.72
45888;BME280;31595;51.418;7.572;2023-02-02T01:04:35;100638.22;;;8.03;73.13
45888;BME280;31595;51.418;7.572;2023-02-02T01:07:03;100638.56;;;7.96;73.67
45888;BME280;31595;51.418;7.572;2023-02-02T01:09:31;100641.34;;;7.96;73.71
45888;BME280;31595;51.418;7.572;2023-02-02T01:11:58;100640.22;;;7.97;74.13
45888;BME280;31595;51.418;7.572;2023-02-02T01:14:26;100643.78;;;8.03;74.63
45888;BME280;31595;51.418;7.572;2023-02-02T01:16:53;100637.41;;;8.02;74.48
45888;BME280;31595;51.418;7.572;2023-02-02T01:19:20;100644.06;;;8.01;75.02
45888;BME280;31595;51.418;7.572;2023-02-02T01:21:47;100644.59;;;8.03;74.27
45888;BME280;31595;51.418;7.572;2023-02-02T01:24:16;100644.31;;;8.05;74.24
45888;BME280;31595;51.418;7.572;2023-02-02T01:26:44;100647.34;;;8.08;74.06
45888;BME280;31595;51.418;7.572;2023-02-02T01:29:11;100648.44;;;8.07;74.22
45888;BME280;31595;51.418;7.572;2023-02-02T01:31:41;100638.94;;;8.13;74.33
45888;BME280;31595;51.418;7.572;2023-02-02T01:34:08;100634.22;;;8.14;74.95
45888;BME280;31595;51.418;7.572;2023-02-02T01:36:35;100637.28;;;8.12;75.56
45888;BME280;31595;51.418;7.572;2023-02-02T01:39:03;100641.19;;;8.11;75.15
45888;BME280;31595;51.418;7.572;2023-02-02T01:41:30;100644.50;;;8.13;75.03
45888;BME280;31595;51.418;7.572;2023-02-02T01:44:00;100644.41;;;8.19;74.46
45888;BME280;31595;51.418;7.572;2023-02-02T01:46:29;100653.81;;;8.23;73.67
45888;BME280;31595;51.418;7.572;2023-02-02T01:49:01;100648.25;;;8.23;74.61
45888;BME280;31595;51.418;7.572;2023-02-02T01:51:34;100653.81;;;8.23;74.74
45888;BME280;31595;51.418;7.572;2023-02-02T01:54:05;100658.78;;;8.26;74.64
45888;BME280;31595;51.418;7.572;2023-02-02T01:56:38;100658.19;;;8.29;75.14
45888;BME280;31595;51.418;7.572;2023-02-02T01:59:09;100657.63;;;8.32;74.43
45888;BME280;31595;51.418;7.572;2023-02-02T02:01:38;100652.28;;;8.36;75.25
45888;BME280;31595;51.418;7.572;2023-02-02T02:04:06;100664.22;;;8.36;75.59
45888;BME280;31595;51.418;7.572;2023-02-02T02:06:33;100662.75;;;8.44;75.44
45888;BME280;31595;51.418;7.572;2023-02-02T02:09:03;100664.69;;;8.48;75.18
45888;BME280;31595;51.418;7.572;2023-02-02T02:11:31;100673.53;;;8.50;74.75
45888;BME280;31595;51.418;7.572;2023-02-02T02:14:06;100675.94;;;8.57;74.98
45888;BME280;31595;51.418;7.572;2023-02-02T02:17:04;100676.25;;;8.56;74.82
45888;BME280;31595;51.418;7.572;2023-02-02T02:23:32;100668.03;;;8.69;75.50
45888;BME280;31595;51.418;7.572;2023-02-02T02:26:38;100663.59;;;8.68;74.48
45888;BME280;31595;51.418;7.572;2023-02-02T02:32:26;100658.81;;;8.74;75.48
45888;BME280;31595;51.418;7.572;2023-02-02T02:35:02;100656.75;;;8.80;75.36
45888;BME280;31595;51.418;7.572;2023-02-02T02:37:37;100661.50;;;8.79;75.52
45888;BME280;31595;51.418;7.572;2023-02-02T02:40:11;100652.59;;;8.82;74.44
45888;BME280;31595;51.418;7.572;2023-02-02T02:42:45;100652.06;;;8.80;75.51
45888;BME280;31595;51.418;7.572;2023-02-02T02:45:16;100656.75;;;8.80;75.52
45888;BME280;31595;51.418;7.572;2023-02-02T02:47:45;100657.00;;;8.83;73.85
45888;BME280;31595;51.418;7.572;2023-02-02T02:50:14;100652.59;;;8.82;74.46
45888;BME280;31595;51.418;7.572;2023-02-02T02:52:42;100657.91;;;8.79;73.91
45888;BME280;31595;51.418;7.572;2023-02-02T02:55:10;100662.31;;;8.80;75.07
45888;BME280;31595;51.418;7.572;2023-02-02T02:58:12;100646.50;;;8.80;75.12
45888;BME280;31595;51.418;7.572;2023-02-02T03:00:47;100643.66;;;8.85;74.77
45888;BME280;31595;51.418;7.572;2023-02-02T03:03:25;100642.00;;;8.84;75.28
45888;BME280;31595;51.418;7.572;2023-02-02T03:06:03;100638.03;;;8.90;75.34
45888;BME280;31595;51.418;7.572;2023-02-02T03:08:34;100644.13;;;8.92;75.53
45888;BME280;31595;51.418;7.572;2023-02-02T03:11:03;100649.69;;;8.92;75.26
45888;BME280;31595;51.418;7.572;2023-02-02T03:13:32;100655.75;;;8.94;74.94
45888;BME280;31595;51.418;7.572;2023-02-02T03:16:00;100658.53;;;8.94;74.60
45888;BME280;31595;51.418;7.572;2023-02-02T03:18:30;100666.88;;;8.94;74.82
45888;BME280;31595;51.418;7.572;2023-02-02T03:20:58;100655.22;;;8.92;73.86
45888;BME280;31595;51.418;7.572;2023-02-02T03:23:26;100661.53;;;8.98;74.33
45888;BME280;31595;51.418;7.572;2023-02-02T03:25:53;100653.19;;;8.98;73.99
45888;BME280;31595;51.418;7.572;2023-02-02T03:28:23;100659.72;;;8.88;73.13
45888;BME280;31595;51.418;7.572;2023-02-02T03:30:52;100660.25;;;8.90;74.55
45888;BME280;31595;51.418;7.572;2023-02-02T03:33:20;100654.72;;;8.90;73.75
45888;BME280;31595;51.418;7.572;2023-02-02T03:35:49;100654.63;;;8.96;73.40
45888;BME280;31595;51.418;7.572;2023-02-02T03:38:17;100651.56;;;8.97;73.63
45888;BME280;31595;51.418;7.572;2023-02-02T03:40:44;100653.56;;;8.91;72.71
45888;BME280;31595;51.418;7.572;2023-02-02T03:43:11;100660.25;;;8.90;73.77
45888;BME280;31595;51.418;7.572;2023-02-02T03:45:39;100663.84;;;8.91;73.60
45888;BME280;31595;51.418;7.572;2023-02-02T03:48:06;100666.56;;;8.96;74.08
45888;BME280;31595;51.418;7.572;2023-02-02T03:50:33;100653.72;;;9.00;72.72
45888;BME280;31595;51.418;7.572;2023-02-02T03:53:02;100661.22;;;9.00;73.49
45888;BME280;31595;51.418;7.572;2023-02-02T03:55:30;100665.66;;;9.01;73.63
45888;BME280;31595;51.418;7.572;2023-02-02T03:57:57;100670.91;;;9.02;72.83
45888;BME280;31595;51.418;7.572;2023-02-02T04:00:24;100669.56;;;9.00;73.96
45888;BME280;31595;51.418;7.572;2023-02-02T04:02:53;100667.06;;;8.98;73.22
45888;BME280;31595;51.418;7.572;2023-02-02T04:05:20;100654.00;;;8.99;72.83
45888;BME280;31595;51.418;7.572;2023-02-02T04:07:47;100660.69;;;8.98;74.25
45888;BME280;31595;51.418;7.572;2023-02-02T04:10:17;100661.22;;;9.00;73.04
45888;BME280;31595;51.418;7.572;2023-02-02T04:12:44;100662.06;;;9.00;74.28
45888;BME280;31595;51.418;7.572;2023-02-02T04:15:11;100657.84;;;9.03;73.61
45888;BME280;31595;51.418;7.572;2023-02-02T04:17:38;100652.00;;;9.04;74.33
45888;BME280;31595;51.418;7.572;2023-02-02T04:20:06;100647.88;;;9.02;73.00
45888;BME280;31595;51.418;7.572;2023-02-02T04:22:34;100647.06;;;9.01;73.54
45888;BME280;31595;51.418;7.572;2023-02-02T04:25:01;100655.44;;;8.96;73.29
45888;BME280;31595;51.418;7.572;2023-02-02T04:27:30;100654.84;;;8.99;73.69
45888;BME280;31595;51.418;7.572;2023-02-02T04:29:58;100658.47;;;9.00;74.55
45888;BME280;31595;51.418;7.572;2023-02-02T04:32:26;100660.63;;;9.03;73.61
45888;BME280;31595;51.418;7.572;2023-02-02T04:34:53;100661.75;;;9.02;74.45
45888;BME280;31595;51.418;7.572;2023-02-02T04:37:20;100661.22;;;9.00;74.42
45888;BME280;31595;51.418;7.572;2023-02-02T04:39:48;100656.13;;;9.07;74.91
45888;BME280;31595;51.418;7.572;2023-02-02T04:42:15;100658.38;;;9.05;74.25
45888;BME280;31595;51.418;7.572;2023-02-02T04:44:44;100661.09;;;9.10;75.17
45888;BME280;31595;51.418;7.572;2023-02-02T04:47:11;100663.06;;;9.09;74.47
45888;BME280;31595;51.418;7.572;2023-02-02T04:49:38;100669.34;;;9.15;74.55
45888;BME280;31595;51.418;7.572;2023-02-02T04:52:06;100665.97;;;9.18;74.80
45888;BME280;31595;51.418;7.572;2023-02-02T04:54:33;100673.50;;;9.18;75.29
45888;BME280;31595;51.418;7.572;2023-02-02T04:57:00;100667.31;;;9.21;75.81
45888;BME280;31595;51.418;7.572;2023-02-02T04:59:28;100666.50;;;9.20;74.50
45888;BME280;31595;51.418;7.572;2023-02-02T05:01:58;100656.50;;;9.19;75.36
45888;BME280;31595;51.418;7.572;2023-02-02T05:04:26;100660.03;;;9.06;75.36
45888;BME280;31595;51.418;7.572;2023-02-02T05:06:53;100647.88;;;9.02;76.46
45888;BME280;31595;51.418;7.572;2023-02-02T05:09:21;100657.03;;;9.02;76.09
45888;BME280;31595;51.418;7.572;2023-02-02T05:11:48;100649.50;;;9.03;75.26
45888;BME280;31595;51.418;7.572;2023-02-02T05:14:15;100659.28;;;9.00;77.03
45888;BME280;31595;51.418;7.572;2023-02-02T05:16:44;100655.06;;;9.03;76.35
45888;BME280;31595;51.418;7.572;2023-02-02T05:19:13;100660.03;;;9.06;75.71
45888;BME280;31595;51.418;7.572;2023-02-02T05:21:42;100659.81;;;9.02;76.53
45888;BME280;31595;51.418;7.572;2023-02-02T05:24:10;100651.19;;;9.04;76.39
45888;BME280;31595;51.418;7.572;2023-02-02T05:26:38;100652.91;;;9.00;76.53
45888;BME280;31595;51.418;7.572;2023-02-02T05:29:05;100654.00;;;8.99;77.80
45888;BME280;31595;51.418;7.572;2023-02-02T05:31:34;100652.81;;;9.05;77.69
45888;BME280;31595;51.418;7.572;2023-02-02T05:34:01;100662.88;;;9.01;76.42
45888;BME280;31595;51.418;7.572;2023-02-02T05:36:31;100657.78;;;9.08;77.45
45888;BME280;31595;51.418;7.572;2023-02-02T05:38:58;100662.72;;;9.11;76.63
45888;BME280;31595;51.418;7.572;2023-02-02T05:41:26;100661.91;;;9.10;76.96
45888;BME280;31595;51.418;7.572;2023-02-02T05:43:53;100665.50;;;9.11;76.96
45888;BME280;31595;51.418;7.572;2023-02-02T05:46:20;100661.00;;;9.15;77.30
45888;BME280;31595;51.418;7.572;2023-02-02T05:48:47;100656.81;;;9.18;75.96
45888;BME280;31595;51.418;7.572;2023-02-02T05:51:15;100653.50;;;9.16;76.03
45888;BME280;31595;51.418;7.572;2023-02-02T05:53:46;100648.97;;;9.20;75.36
45888;BME280;31595;51.418;7.572;2023-02-02T05:56:14;100660.94;;;9.20;76.17
45888;BME280;31595;51.418;7.572;2023-02-02T05:58:41;100655.38;;;9.20;76.00
45888;BME280;31595;51.418;7.572;2023-02-02T06:01:09;100652.00;;;9.23;76.24
45888;BME280;31595;51.418;7.572;2023-02-02T06:03:36;100655.59;;;9.24;75.30
45888;BME280;31595;51.418;7.572;2023-02-02T06:06:04;100662.00;;;9.24;76.57
45888;BME280;31595;51.418;7.572;2023-02-02T06:08:31;100659.22;;;9.24;75.32
45888;BME280;31595;51.418;7.572;2023-02-02T06:11:07;100662.53;;;9.26;75.35
45888;BME280;31595;51.418;7.572;2023-02-02T06:13:34;100653.03;;;9.27;74.96
45888;BME280;31595;51.418;7.572;2023-02-02T06:16:02;100666.34;;;9.30;75.89
45888;BME280;31595;51.418;7.572;2023-02-02T06:18:29;100668.00;;;9.31;75.79
45888;BME280;31595;51.418;7.572;2023-02-02T06:20:56;100674.47;;;9.27;75.35
45888;BME280;31595;51.418;7.572;2023-02-02T06:23:24;100667.47;;;9.29;76.21
45888;BME280;31595;51.418;7.572;2023-02-02T06:25:51;100678.06;;;9.27;75.56
45888;BME280;31595;51.418;7.572;2023-02-02T06:28:20;100677.47;;;9.30;76.44
45888;BME280;31595;51.418;7.572;2023-02-02T06:30:47;100676.34;;;9.31;76.57
45888;BME280;31595;51.418;7.572;2023-02-02T06:33:15;100681.66;;;9.28;75.38
45888;BME280;31595;51.418;7.572;2023-02-02T06:35:42;100676.78;;;9.20;75.40
45888;BME280;31595;51.418;7.572;2023-02-02T06:38:09;100684.28;;;9.19;76.61
45888;BME280;31595;51.418;7.572;2023-02-02T06:40:36;100684.00;;;9.21;77.16
45888;BME280;31595;51.418;7.572;2023-02-02T06:43:04;100693.16;;;9.21;75.69
45888;BME280;31595;51.418;7.572;2023-02-02T06:45:32;100688.34;;;9.27;75.54
45888;BME280;31595;51.418;7.572;2023-02-02T06:48:05;100691.44;;;9.25;76.18
45888;BME280;31595;51.418;7.572;2023-02-02T06:50:36;100691.38;;;9.30;75.80
45888;BME280;31595;51.418;7.572;2023-02-02T06:53:04;100691.13;;;9.27;76.26
45888;BME280;31595;51.418;7.572;2023-02-02T06:55:31;100693.53;;;9.33;75.03
45888;BME280;31595;51.418;7.572;2023-02-02T06:57:59;100693.53;;;9.33;75.54
45888;BME280;31595;51.418;7.572;2023-02-02T07:00:28;100697.47;;;9.32;76.03
45888;BME280;31595;51.418;7.572;2023-02-02T07:02:57;100704.66;;;9.33;76.05
45888;BME280;31595;51.418;7.572;2023-02-02T07:05:26;100711.88;;;9.34;76.09
45888;BME280;31595;51.418;7.572;2023-02-02T07:07:54;100711.88;;;9.34;76.13
45888;BME280;31595;51.418;7.572;2023-02-02T07:10:21;100715.47;;;9.35;76.19
45888;BME280;31595;51.418;7.572;2023-02-02T07:12:49;100719.31;;;9.39;75.58
45888;BME280;31595;51.418;7.572;2023-02-02T07:15:16;100717.66;;;9.38;75.29
45888;BME280;31595;51.418;7.572;2023-02-02T07:17:43;100721.94;;;9.30;76.24
45888;BME280;31595;51.418;7.572;2023-02-02T07:20:12;100719.91;;;9.36;76.01
45888;BME280;31595;51.418;7.572;2023-02-02T07:22:40;100720.28;;;9.29;77.06
45888;BME280;31595;51.418;7.572;2023-02-02T07:25:07;100726.31;;;9.37;77.54
45888;BME280;31595;51.418;7.572;2023-02-02T07:27:36;100723.22;;;9.38;77.37
45888;BME280;31595;51.418;7.572;2023-02-02T07:30:04;100726.31;;;9.37;76.34
45888;BME280;31595;51.418;7.572;2023-02-02T07:32:32;100721.78;;;9.41;77.26
45888;BME280;31595;51.418;7.572;2023-02-02T07:34:59;100729.00;;;9.42;76.01
45888;BME280;31595;51.418;7.572;2023-02-02T07:37:27;100727.94;;;9.38;75.84
45888;BME280;31595;51.418;7.572;2023-02-02T07:39:55;100733.75;;;9.41;76.27
45888;BME280;31595;51.418;7.572;2023-02-02T07:42:22;100736.72;;;9.45;77.13
45888;BME280;31595;51.418;7.572;2023-02-02T07:44:49;100737.06;;;9.43;76.15
45888;BME280;31595;51.418;7.572;2023-02-02T07:47:19;100738.00;;;9.33;76.05
45888;BME280;31595;51.418;7.572;2023-02-02T07:49:46;100734.66;;;9.37;76.00
45888;BME280;31595;51.418;7.572;2023-02-02T07:52:13;100729.00;;;9.42;77.16
45888;BME280;31595;51.418;7.572;2023-02-02T07:54:42;100729.97;;;9.51;75.97
45888;BME280;31595;51.418;7.572;2023-02-02T07:57:10;100729.09;;;9.55;75.63
45888;BME280;31595;51.418;7.572;2023-02-02T07:59:38;100732.84;;;9.46;75.83
45888;BME280;31595;51.418;7.572;2023-02-02T08:02:05;100735.84;;;9.49;75.67
45888;BME280;31595;51.418;7.572;2023-02-02T08:04:32;100738.94;;;9.48;76.08
45888;BME280;31595;51.418;7.572;2023-02-02T08:07:00;100750.34;;;9.46;75.29
45888;BME280;31595;51.418;7.572;2023-02-02T08:09:27;100735.00;;;9.49;76.22
45888;BME280;31595;51.418;7.572;2023-02-02T08:11:56;100745.84;;;9.50;75.33
45888;BME280;31595;51.418;7.572;2023-02-02T08:14:26;100748.63;;;9.50;75.04
45888;BME280;31595;51.418;7.572;2023-02-02T08:16:54;100744.41;;;9.53;75.78
45888;BME280;31595;51.418;7.572;2023-02-02T08:19:21;100743.19;;;9.59;75.42
45888;BME280;31595;51.418;7.572;2023-02-02T08:21:48;100746.38;;;9.52;75.04
45888;BME280;31595;51.418;7.572;2023-02-02T08:24:15;100760.50;;;9.56;75.40
45888;BME280;31595;51.418;7.572;2023-02-02T08:26:43;100758.25;;;9.58;75.04
45888;BME280;31595;51.418;7.572;2023-02-02T08:29:11;100753.41;;;9.64;74.85
45888;BME280;31595;51.418;7.572;2023-02-02T08:31:43;100765.38;;;9.64;75.17
45888;BME280;31595;51.418;7.572;2023-02-02T08:34:11;100762.50;;;9.69;75.69
45888;BME280;31595;51.418;7.572;2023-02-02T08:36:39;100767.50;;;9.72;74.72
45888;BME280;31595;51.418;7.572;2023-02-02T08:39:10;100771.91;;;9.73;74.69
45888;BME280;31595;51.418;7.572;2023-02-02T08:41:37;100772.16;;;9.77;75.14
45888;BME280;31595;51.418;7.572;2023-02-02T08:44:05;100779.66;;;9.77;74.63
45888;BME280;31595;51.418;7.572;2023-02-02T08:46:34;100778.47;;;9.83;73.88
45888;BME280;31595;51.418;7.572;2023-02-02T08:49:02;100778.47;;;9.83;74.14
45888;BME280;31595;51.418;7.572;2023-02-02T08:51:29;100768.34;;;9.87;74.03
45888;BME280;31595;51.418;7.572;2023-02-02T08:53:56;100779.94;;;9.94;74.01
45888;BME280;31595;51.418;7.572;2023-02-02T08:56:24;100783.25;;;9.96;74.45
45888;BME280;31595;51.418;7.572;2023-02-02T08:58:52;100777.31;;;10.03;73.70
45888;BME280;31595;51.418;7.572;2023-02-02T09:01:22;100791.91;;;9.94;73.81
45888;BME280;31595;51.418;7.572;2023-02-02T09:03:53;100784.53;;;10.04;73.76
45888;BME280;31595;51.418;7.572;2023-02-02T09:06:25;100796.19;;;10.06;73.35
45888;BME280;31595;51.418;7.572;2023-02-02T09:08:53;100798.75;;;10.02;74.04
45888;BME280;31595;51.418;7.572;2023-02-02T09:11:21;100809.59;;;10.04;74.04
45888;BME280;31595;51.418;7.572;2023-02-02T09:13:53;100811.50;;;10.03;73.65
45888;BME280;31595;51.418;7.572;2023-02-02T09:16:24;100805.94;;;10.03;73.14
45888;BME280;31595;51.418;7.572;2023-02-02T09:18:53;100813.78;;;10.01;73.15
45888;BME280;31595;51.418;7.572;2023-02-02T09:21:21;100821.91;;;9.98;73.49
45888;BME280;31595;51.418;7.572;2023-02-02T09:23:49;100826.56;;;10.02;73.36
45888;BME280;31595;51.418;7.572;2023-02-02T09:26:20;100830.94;;;10.08;73.67
45888;BME280;31595;51.418;7.572;2023-02-02T09:28:49;100826.19;;;10.09;73.34
45888;BME280;31595;51.418;7.572;2023-02-02T09:31:17;100833.78;;;10.03;73.74
45888;BME280;31595;51.418;7.572;2023-02-02T09:33:45;100831.31;;;10.02;73.08
45888;BME280;31595;51.418;7.572;2023-02-02T09:36:15;100841.97;;;10.13;73.84
45888;BME280;31595;51.418;7.572;2023-02-02T09:38:43;100845.22;;;10.21;73.16
45888;BME280;31595;51.418;7.572;2023-02-02T09:41:40;100848.53;;;10.23;72.98
45888;BME280;31595;51.418;7.572;2023-02-02T09:44:23;100856.66;;;10.19;72.78
45888;BME280;31595;51.418;7.572;2023-02-02T09:47:02;100857.75;;;10.18;73.03
45888;BME280;31595;51.418;7.572;2023-02-02T09:49:38;100866.88;;;10.24;72.71
45888;BME280;31595;51.418;7.572;2023-02-02T09:52:11;100864.72;;;10.21;72.36
45888;BME280;31595;51.418;7.572;2023-02-02T09:54:42;100863.56;;;10.22;72.05
45888;BME280;31595;51.418;7.572;2023-02-02T09:57:14;100875.31;;;10.19;72.53
45888;BME280;31595;51.418;7.572;2023-02-02T09:59:46;100873.88;;;10.21;72.61
45888;BME280;31595;51.418;7.572;2023-02-02T10:02:19;100888.09;;;10.20;72.89
45888;BME280;31595;51.418;7.572;2023-02-02T10:04:50;100884.41;;;10.24;72.56
45888;BME280;31595;51.418;7.572;2023-02-02T10:07:26;100884.63;;;10.28;72.49
45888;BME280;31595;51.418;7.572;2023-02-02T10:09:59;100887.34;;;10.33;73.27
45888;BME280;31595;51.418;7.572;2023-02-02T10:12:33;100892.91;;;10.33;72.41
45888;BME280;31595;51.418;7.572;2023-02-02T10:15:07;100891.28;;;10.32;72.34
45888;BME280;31595;51.418;7.572;2023-02-02T10:17:43;100889.59;;;10.31;72.65
45888;BME280;31595;51.418;7.572;2023-02-02T10:20:30;100893.44;;;10.35;73.26
45888;BME280;31595;51.418;7.572;2023-02-02T10:23:08;100904.53;;;10.40;72.87
45888;BME280;31595;51.418;7.572;2023-02-02T10:25:38;100903.47;;;10.36;72.22
45888;BME280;31595;51.418;7.572;2023-02-02T10:28:23;100901.72;;;10.40;72.12
45888;BME280;31595;51.418;7.572;2023-02-02T10:30:59;100907.88;;;10.37;72.52
45888;BME280;31595;51.418;7.572;2023-02-02T10:33:33;100905.72;;;10.34;71.66
45888;BME280;31595;51.418;7.572;2023-02-02T10:36:08;100916.88;;;10.34;72.14
45888;BME280;31595;51.418;7.572;2023-02-02T10:38:48;100915.44;;;10.36;72.60
45888;BME280;31595;51.418;7.572;2023-02-02T10:41:25;100924.41;;;10.33;72.28
45888;BME280;31595;51.418;7.572;2023-02-02T10:44:05;100933.59;;;10.29;72.98
45888;BME280;31595;51.418;7.572;2023-02-02T10:46:37;100924.44;;;10.28;73.17
45888;BME280;31595;51.418;7.572;2023-02-02T10:49:23;100933.59;;;10.29;72.93
45888;BME280;31595;51.418;7.572;2023-02-02T10:51:57;100923.59;;;10.28;73.24
45888;BME280;31595;51.418;7.572;2023-02-02T10:54:39;100932.25;;;10.26;73.33
45888;BME280;31595;51.418;7.572;2023-02-02T10:57:11;100932.41;;;10.16;73.71
45888;BME280;31595;51.418;7.572;2023-02-02T10:59:51;100925.56;;;10.08;73.77
45888;BME280;31595;51.418;7.572;2023-02-02T11:02:25;100936.63;;;10.13;74.17
45888;BME280;31595;51.418;7.572;2023-02-02T11:04:53;100934.66;;;10.14;73.94
45888;BME280;31595;51.418;7.572;2023-02-02T11:07:35;100932.09;;;10.18;74.03
45888;BME280;31595;51.418;7.572;2023-02-02T11:10:04;100933.59;;;10.10;74.23
45888;BME280;31595;51.418;7.572;2023-02-02T11:12:33;100934.72;;;10.09;73.80
45888;BME280;31595;51.418;7.572;2023-02-02T11:15:01;100935.66;;;10.04;73.52
45888;BME280;31595;51.418;7.572;2023-02-02T11:17:30;100943.69;;;10.06;73.93
45888;BME280;31595;51.418;7.572;2023-02-02T11:19:58;100942.84;;;10.05;73.91
45888;BME280;31595;51.418;7.572;2023-02-02T11:22:30;100939.25;;;10.05;74.03
45888;BME280;31595;51.418;7.572;2023-02-02T11:25:05;100935.72;;;10.18;73.69
45888;BME280;31595;51.418;7.572;2023-02-02T11:27:37;100948.44;;;10.24;74.29
45888;BME280;31595;51.418;7.572;2023-02-02T11:30:16;100945.53;;;10.34;73.77
45888;BME280;31595;51.418;7.572;2023-02-02T11:32:47;100948.59;;;10.33;73.27
45888;BME280;31595;51.418;7.572;2023-02-02T11:35:21;100944.19;;;10.32;73.49
45888;BME280;31595;51.418;7.572;2023-02-02T11:38:12;100938.00;;;10.35;73.49
45888;BME280;31595;51.418;7.572;2023-02-02T11:40:44;100935.16;;;10.40;73.98
45888;BME280;31595;51.418;7.572;2023-02-02T11:43:17;100949.91;;;10.41;73.32
45888;BME280;31595;51.418;7.572;2023-02-02T11:45:51;100936.97;;;10.50;72.58
45888;BME280;31595;51.418;7.572;2023-02-02T11:48:21;100939.91;;;10.40;72.75
45888;BME280;31595;51.418;7.572;2023-02-02T11:50:52;100937.16;;;10.53;73.29
45888;BME280;31595;51.418;7.572;2023-02-02T11:53:24;100943.19;;;10.61;73.04
45888;BME280;31595;51.418;7.572;2023-02-02T11:55:54;100941.53;;;10.60;72.83
45888;BME280;31595;51.418;7.572;2023-02-02T11:58:23;100937.63;;;10.61;72.99
45888;BME280;31595;51.418;7.572;2023-02-02T12:00:55;100935.00;;;10.50;72.65
45888;BME280;31595;51.418;7.572;2023-02-02T12:03:29;100936.63;;;10.51;72.97
45888;BME280;31595;51.418;7.572;2023-02-02T12:05:56;100932.13;;;10.55;72.84
45888;BME280;31595;51.418;7.572;2023-02-02T12:08:24;100935.53;;;10.52;73.00
45888;BME280;31595;51.418;7.572;2023-02-02T12:10:59;100929.34;;;10.55;73.10
45888;BME280;31595;51.418;7.572;2023-02-02T12:13:38;100928.13;;;10.62;73.41
45888;BME280;31595;51.418;7.572;2023-02-02T12:16:23;100928.41;;;10.60;72.79
45888;BME280;31595;51.418;7.572;2023-02-02T12:19:14;100941.09;;;10.52;73.16
45888;BME280;31595;51.418;7.572;2023-02-02T12:21:50;100936.09;;;10.49;73.28
45888;BME280;31595;51.418;7.572;2023-02-02T12:24:28;100931.97;;;10.47;73.32
45888;BME280;31595;51.418;7.572;2023-02-02T12:27:06;100938.16;;;10.44;73.18
45888;BME280;31595;51.418;7.572;2023-02-02T12:29:45;100939.81;;;10.45;73.08
45888;BME280;31595;51.418;7.572;2023-02-02T12:32:25;100944.31;;;10.41;73.01
45888;BME280;31595;51.418;7.572;2023-02-02T12:35:04;100938.75;;;10.41;72.64
45888;BME280;31595;51.418;7.572;2023-02-02T12:37:48;100950.50;;;10.38;72.40
45888;BME280;31595;51.418;7.572;2023-02-02T12:40:28;100951.22;;;10.24;72.62
45888;BME280;31595;51.418;7.572;2023-02-02T12:43:03;100945.97;;;10.23;72.89
45888;BME280;31595;51.418;7.572;2023-02-02T12:45:50;100950.91;;;10.26;72.86
45888;BME280;31595;51.418;7.572;2023-02-02T12:48:36;100959.28;;;10.26;73.50
45888;BME280;31595;51.418;7.572;2023-02-02T12:51:16;100957.03;;;10.28;73.33
45888;BME280;31595;51.418;7.572;2023-02-02T12:54:05;100952.28;;;10.28;73.04
45888;BME280;31595;51.418;7.572;2023-02-02T12:56:45;100951.44;;;10.28;73.38
45888;BME280;31595;51.418;7.572;2023-02-02T12:59:29;100951.38;;;10.33;73.41
45888;BME280;31595;51.418;7.572;2023-02-02T13:02:04;100950.00;;;10.35;73.28
45888;BME280;31595;51.418;7.572;2023-02-02T13:04:49;100950.19;;;10.39;73.25
45888;BME280;31595;51.418;7.572;2023-02-02T13:07:33;100951.34;;;10.38;73.13
45888;BME280;31595;51.418;7.572;2023-02-02T13:10:15;100953.06;;;10.34;73.87
45888;BME280;31595;51.418;7.572;2023-02-02T13:12:47;100949.47;;;10.33;73.98
45888;BME280;31595;51.418;7.572;2023-02-02T13:15:19;100948.25;;;10.40;73.61
45888;BME280;31595;51.418;7.572;2023-02-02T13:17:51;100947.53;;;10.29;74.13
45888;BME280;31595;51.418;7.572;2023-02-02T13:20:29;100948.59;;;10.33;74.27
45888;BME280;31595;51.418;7.572;2023-02-02T13:23:02;100943.28;;;10.36;74.04